sensor_id;sensor_type;location;lat;lon;timestamp;P1;durP1;ratioP1;P2;durP2;ratioP2
64293;SDS011;50636;45.596;5.258;2023-02-10T00:01:33;25.17;;;14.93;;
64293;SDS011;50636;45.596;5.258;2023-02-10T00:04:00;28.83;;;18.42;;
64293;SDS011;50636;45.596;5.258;2023-02-10T00:06:27;29.23;;;18.35;;
64293;SDS011;50636;45.596;5.258;2023-02-10T00:08:55;29.80;;;19.20;;
64293;SDS011;50636;45.596;5.258;2023-02-10T00:11:24;24.88;;;17.80;;
64293;SDS011;50636;45.596;5.258;2023-02-10T00:14:09;25.67;;;16.60;;
64293;SDS011;50636;45.596;5.258;2023-02-10T00:16:38;28.08;;;16.65;;
64293;SDS011;50636;45.596;5.258;2023-02-10T00:21:56;23.45;;;13.00;;
64293;SDS011;50636;45.596;5.258;2023-02-10T00:24:30;29.98;;;15.68;;
64293;SDS011;50636;45.596;5.258;2023-02-10T00:27:03;28.13;;;17.55;;
64293;SDS011;50636;45.596;5.258;2023-02-10T00:29:28;32.90;;;19.75;;
64293;SDS011;50636;45.596;5.258;2023-02-10T00:31:59;34.97;;;17.33;;
64293;SDS011;50636;45.596;5.258;2023-02-10T00:37:11;28.10;;;19.00;;
64293;SDS011;50636;45.596;5.258;2023-02-10T00:39:38;31.50;;;18.38;;
64293;SDS011;50636;45.596;5.258;2023-02-10T00:42:18;25.45;;;16.20;;
64293;SDS011;50636;45.596;5.258;2023-02-10T00:44:55;26.58;;;14.95;;
64293;SDS011;50636;45.596;5.258;2023-02-10T00:47:26;26.10;;;15.35;;
64293;SDS011;50636;45.596;5.258;2023-02-10T00:50:03;24.60;;;14.18;;
64293;SDS011;50636;45.596;5.258;2023-02-10T00:52:34;25.95;;;14.85;;
64293;SDS011;50636;45.596;5.258;2023-02-10T00:55:06;23.85;;;14.40;;
64293;SDS011;50636;45.596;5.258;2023-02-10T00:57:39;28.25;;;17.02;;
64293;SDS011;50636;45.596;5.258;2023-02-10T01:00:08;25.80;;;15.23;;
64293;SDS011;50636;45.596;5.258;2023-02-10T01:02:35;42.45;;;19.00;;
64293;SDS011;50636;45.596;5.258;2023-02-10T01:05:11;31.73;;;18.48;;
64293;SDS011;50636;45.596;5.258;2023-02-10T01:07:55;28.58;;;17.70;;
64293;SDS011;50636;45.596;5.258;2023-02-10T01:10:31;32.80;;;18.70;;
64293;SDS011;50636;45.596;5.258;2023-02-10T01:13:32;31.25;;;18.35;;
64293;SDS011;50636;45.596;5.258;2023-02-10T01:16:09;26.10;;;15.57;;
64293;SDS011;50636;45.596;5.258;2023-02-10T01:19:03;23.50;;;15.70;;
64293;SDS011;50636;45.596;5.258;2023-02-10T01:21:29;25.90;;;15.52;;
64293;SDS011;50636;45.596;5.258;2023-02-10T01:24:05;28.25;;;16.92;;
64293;SDS011;50636;45.596;5.258;2023-02-10T01:29:13;29.35;;;16.38;;
64293;SDS011;50636;45.596;5.258;2023-02-10T01:31:50;31.08;;;17.02;;
64293;SDS011;50636;45.596;5.258;2023-02-10T01:34:28;27.73;;;16.42;;
64293;SDS011;50636;45.596;5.258;2023-02-10T01:37:06;23.73;;;15.60;;
64293;SDS011;50636;45.596;5.258;2023-02-10T01:39:47;27.98;;;16.90;;
64293;SDS011;50636;45.596;5.258;2023-02-10T01:42:25;29.13;;;16.05;;
64293;SDS011;50636;45.596;5.258;2023-02-10T01:48:39;35.60;;;19.13;;
64293;SDS011;50636;45.596;5.258;2023-02-10T01:51:17;34.92;;;20.83;;
64293;SDS011;50636;45.596;5.258;2023-02-10T02:00:12;29.58;;;19.95;;
64293;SDS011;50636;45.596;5.258;2023-02-10T02:03:05;26.65;;;18.33;;
64293;SDS011;50636;45.596;5.258;2023-02-10T02:05:41;25.38;;;13.85;;
64293;SDS011;50636;45.596;5.258;2023-02-10T02:08:14;21.40;;;13.18;;
64293;SDS011;50636;45.596;5.258;2023-02-10T02:14:31;26.63;;;15.30;;
64293;SDS011;50636;45.596;5.258;2023-02-10T02:17:26;22.23;;;14.68;;
64293;SDS011;50636;45.596;5.258;2023-02-10T02:20:08;30.80;;;18.70;;
64293;SDS011;50636;45.596;5.258;2023-02-10T02:23:10;37.40;;;21.00;;
64293;SDS011;50636;45.596;5.258;2023-02-10T02:32:54;25.50;;;15.85;;
64293;SDS011;50636;45.596;5.258;2023-02-10T02:38:25;30.42;;;17.95;;
64293;SDS011;50636;45.596;5.258;2023-02-10T02:43:47;25.65;;;16.35;;
64293;SDS011;50636;45.596;5.258;2023-02-10T02:52:57;76.93;;;21.83;;
64293;SDS011;50636;45.596;5.258;2023-02-10T02:59:58;30.55;;;14.98;;
64293;SDS011;50636;45.596;5.258;2023-02-10T03:02:58;33.42;;;16.38;;
64293;SDS011;50636;45.596;5.258;2023-02-10T03:05:43;22.75;;;15.55;;
64293;SDS011;50636;45.596;5.258;2023-02-10T03:08:23;28.60;;;17.50;;
64293;SDS011;50636;45.596;5.258;2023-02-10T03:11:03;30.42;;;17.05;;
64293;SDS011;50636;45.596;5.258;2023-02-10T03:13:38;29.85;;;17.98;;
64293;SDS011;50636;45.596;5.258;2023-02-10T03:16:18;27.58;;;16.63;;
64293;SDS011;50636;45.596;5.258;2023-02-10T03:18:47;27.13;;;17.42;;
64293;SDS011;50636;45.596;5.258;2023-02-10T03:21:30;33.25;;;17.80;;
64293;SDS011;50636;45.596;5.258;2023-02-10T03:24:01;27.75;;;18.48;;
64293;SDS011;50636;45.596;5.258;2023-02-10T03:26:37;29.98;;;18.48;;
64293;SDS011;50636;45.596;5.258;2023-02-10T03:29:16;23.42;;;15.48;;
64293;SDS011;50636;45.596;5.258;2023-02-10T03:31:59;23.08;;;15.02;;
64293;SDS011;50636;45.596;5.258;2023-02-10T03:34:39;27.02;;;16.88;;
64293;SDS011;50636;45.596;5.258;2023-02-10T03:37:17;27.60;;;16.55;;
64293;SDS011;50636;45.596;5.258;2023-02-10T03:39:43;27.67;;;17.93;;
64293;SDS011;50636;45.596;5.258;2023-02-10T03:44:56;29.45;;;15.98;;
64293;SDS011;50636;45.596;5.258;2023-02-10T03:50:10;28.95;;;17.92;;
64293;SDS011;50636;45.596;5.258;2023-02-10T03:53:14;31.65;;;20.30;;
64293;SDS011;50636;45.596;5.258;2023-02-10T03:55:52;31.77;;;17.98;;
64293;SDS011;50636;45.596;5.258;2023-02-10T03:58:29;29.52;;;18.40;;
64293;SDS011;50636;45.596;5.258;2023-02-10T04:01:14;31.27;;;19.73;;
64293;SDS011;50636;45.596;5.258;2023-02-10T04:07:07;30.67;;;15.77;;
64293;SDS011;50636;45.596;5.258;2023-02-10T04:09:40;27.45;;;17.52;;
64293;SDS011;50636;45.596;5.258;2023-02-10T04:12:21;26.25;;;14.88;;
64293;SDS011;50636;45.596;5.258;2023-02-10T04:14:49;27.90;;;16.08;;
64293;SDS011;50636;45.596;5.258;2023-02-10T04:17:16;25.48;;;15.45;;
64293;SDS011;50636;45.596;5.258;2023-02-10T04:19:43;33.50;;;18.95;;
64293;SDS011;50636;45.596;5.258;2023-02-10T04:22:10;31.60;;;17.58;;
64293;SDS011;50636;45.596;5.258;2023-02-10T04:24:39;38.55;;;19.58;;
64293;SDS011;50636;45.596;5.258;2023-02-10T04:27:06;28.10;;;17.33;;
64293;SDS011;50636;45.596;5.258;2023-02-10T04:29:39;30.00;;;17.90;;
64293;SDS011;50636;45.596;5.258;2023-02-10T04:32:12;30.98;;;17.83;;
64293;SDS011;50636;45.596;5.258;2023-02-10T04:34:43;31.67;;;17.65;;
64293;SDS011;50636;45.596;5.258;2023-02-10T04:37:09;32.35;;;19.83;;
64293;SDS011;50636;45.596;5.258;2023-02-10T04:42:39;32.80;;;20.00;;
64293;SDS011;50636;45.596;5.258;2023-02-10T04:45:16;34.45;;;20.75;;
64293;SDS011;50636;45.596;5.258;2023-02-10T04:47:46;32.53;;;22.10;;
64293;SDS011;50636;45.596;5.258;2023-02-10T04:50:24;40.65;;;20.83;;
64293;SDS011;50636;45.596;5.258;2023-02-10T04:53:07;39.90;;;22.27;;
64293;SDS011;50636;45.596;5.258;2023-02-10T04:55:47;26.05;;;17.60;;
64293;SDS011;50636;45.596;5.258;2023-02-10T05:01:09;30.25;;;14.90;;
64293;SDS011;50636;45.596;5.258;2023-02-10T05:03:43;34.10;;;20.27;;
64293;SDS011;50636;45.596;5.258;2023-02-10T05:06:19;30.10;;;19.33;;
64293;SDS011;50636;45.596;5.258;2023-02-10T05:08:50;30.65;;;19.30;;
64293;SDS011;50636;45.596;5.258;2023-02-10T05:11:24;28.35;;;18.20;;
64293;SDS011;50636;45.596;5.258;2023-02-10T05:13:52;43.45;;;22.15;;
64293;SDS011;50636;45.596;5.258;2023-02-10T05:16:30;31.80;;;19.20;;
64293;SDS011;50636;45.596;5.258;2023-02-10T05:19:00;33.40;;;20.35;;
64293;SDS011;50636;45.596;5.258;2023-02-10T05:21:26;31.42;;;18.83;;
64293;SDS011;50636;45.596;5.258;2023-02-10T05:24:04;33.00;;;19.48;;
64293;SDS011;50636;45.596;5.258;2023-02-10T05:26:39;27.42;;;17.17;;
64293;SDS011;50636;45.596;5.258;2023-02-10T05:29:14;29.90;;;18.75;;
64293;SDS011;50636;45.596;5.258;2023-02-10T05:31:50;32.15;;;17.13;;
64293;SDS011;50636;45.596;5.258;2023-02-10T05:34:19;28.55;;;17.40;;
64293;SDS011;50636;45.596;5.258;2023-02-10T05:36:44;38.20;;;20.60;;
64293;SDS011;50636;45.596;5.258;2023-02-10T05:39:12;32.15;;;18.55;;
64293;SDS011;50636;45.596;5.258;2023-02-10T05:42:07;34.13;;;22.13;;
64293;SDS011;50636;45.596;5.258;2023-02-10T05:44:38;30.88;;;17.95;;
64293;SDS011;50636;45.596;5.258;2023-02-10T05:47:04;40.55;;;19.13;;
64293;SDS011;50636;45.596;5.258;2023-02-10T05:49:30;40.38;;;21.25;;
64293;SDS011;50636;45.596;5.258;2023-02-10T05:52:17;33.80;;;21.70;;
64293;SDS011;50636;45.596;5.258;2023-02-10T05:54:45;28.80;;;18.35;;
64293;SDS011;50636;45.596;5.258;2023-02-10T05:57:25;32.58;;;18.02;;
64293;SDS011;50636;45.596;5.258;2023-02-10T05:59:52;34.38;;;18.23;;
64293;SDS011;50636;45.596;5.258;2023-02-10T06:02:26;29.77;;;18.45;;
64293;SDS011;50636;45.596;5.258;2023-02-10T06:04:56;34.45;;;20.20;;
64293;SDS011;50636;45.596;5.258;2023-02-10T06:07:22;26.58;;;16.92;;
64293;SDS011;50636;45.596;5.258;2023-02-10T06:09:51;32.20;;;18.70;;
64293;SDS011;50636;45.596;5.258;2023-02-10T06:12:20;32.35;;;17.63;;
64293;SDS011;50636;45.596;5.258;2023-02-10T06:14:48;30.58;;;18.25;;
64293;SDS011;50636;45.596;5.258;2023-02-10T06:17:14;36.80;;;21.00;;
64293;SDS011;50636;45.596;5.258;2023-02-10T06:19:41;31.92;;;22.58;;
64293;SDS011;50636;45.596;5.258;2023-02-10T06:22:08;30.00;;;19.17;;
64293;SDS011;50636;45.596;5.258;2023-02-10T06:24:36;35.20;;;22.40;;
64293;SDS011;50636;45.596;5.258;2023-02-10T06:27:03;37.30;;;21.40;;
64293;SDS011;50636;45.596;5.258;2023-02-10T06:29:30;39.42;;;22.55;;
64293;SDS011;50636;45.596;5.258;2023-02-10T06:31:57;33.83;;;21.65;;
64293;SDS011;50636;45.596;5.258;2023-02-10T06:34:23;39.55;;;22.95;;
64293;SDS011;50636;45.596;5.258;2023-02-10T06:36:49;39.75;;;22.65;;
64293;SDS011;50636;45.596;5.258;2023-02-10T06:39:36;36.67;;;22.60;;
64293;SDS011;50636;45.596;5.258;2023-02-10T06:42:03;38.50;;;23.40;;
64293;SDS011;50636;45.596;5.258;2023-02-10T06:44:31;35.90;;;22.83;;
64293;SDS011;50636;45.596;5.258;2023-02-10T06:46:58;41.92;;;23.65;;
64293;SDS011;50636;45.596;5.258;2023-02-10T06:49:25;49.28;;;24.88;;
64293;SDS011;50636;45.596;5.258;2023-02-10T06:51:52;38.75;;;20.77;;
64293;SDS011;50636;45.596;5.258;2023-02-10T06:54:20;41.70;;;21.75;;
64293;SDS011;50636;45.596;5.258;2023-02-10T06:56:49;34.65;;;20.02;;
64293;SDS011;50636;45.596;5.258;2023-02-10T06:59:16;59.78;;;26.67;;
64293;SDS011;50636;45.596;5.258;2023-02-10T07:01:42;46.72;;;21.38;;
64293;SDS011;50636;45.596;5.258;2023-02-10T07:04:09;53.60;;;25.90;;
64293;SDS011;50636;45.596;5.258;2023-02-10T07:06:38;44.55;;;22.10;;
64293;SDS011;50636;45.596;5.258;2023-02-10T07:09:05;47.72;;;23.63;;
64293;SDS011;50636;45.596;5.258;2023-02-10T07:11:32;38.45;;;22.92;;
64293;SDS011;50636;45.596;5.258;2023-02-10T07:14:01;35.90;;;21.10;;
64293;SDS011;50636;45.596;5.258;2023-02-10T07:16:28;39.17;;;22.38;;
64293;SDS011;50636;45.596;5.258;2023-02-10T07:18:56;44.25;;;26.02;;
64293;SDS011;50636;45.596;5.258;2023-02-10T07:21:24;41.25;;;24.23;;
64293;SDS011;50636;45.596;5.258;2023-02-10T07:24:02;38.63;;;22.38;;
64293;SDS011;50636;45.596;5.258;2023-02-10T07:26:29;41.03;;;22.70;;
64293;SDS011;50636;45.596;5.258;2023-02-10T07:29:06;36.25;;;23.80;;
64293;SDS011;50636;45.596;5.258;2023-02-10T07:31:43;41.22;;;23.80;;
64293;SDS011;50636;45.596;5.258;2023-02-10T07:34:26;39.42;;;25.40;;
64293;SDS011;50636;45.596;5.258;2023-02-10T07:36:54;40.42;;;26.55;;
64293;SDS011;50636;45.596;5.258;2023-02-10T07:39:54;41.28;;;27.55;;
64293;SDS011;50636;45.596;5.258;2023-02-10T07:42:20;33.95;;;22.88;;
64293;SDS011;50636;45.596;5.258;2023-02-10T07:44:47;47.00;;;30.33;;
64293;SDS011;50636;45.596;5.258;2023-02-10T07:47:14;53.50;;;25.83;;
64293;SDS011;50636;45.596;5.258;2023-02-10T07:49:42;44.67;;;23.50;;
64293;SDS011;50636;45.596;5.258;2023-02-10T07:52:09;42.63;;;23.98;;
64293;SDS011;50636;45.596;5.258;2023-02-10T07:54:36;42.95;;;24.90;;
64293;SDS011;50636;45.596;5.258;2023-02-10T07:57:03;43.95;;;27.73;;
64293;SDS011;50636;45.596;5.258;2023-02-10T07:59:30;42.97;;;26.52;;
64293;SDS011;50636;45.596;5.258;2023-02-10T08:01:57;46.20;;;28.63;;
64293;SDS011;50636;45.596;5.258;2023-02-10T08:04:23;40.63;;;25.63;;
64293;SDS011;50636;45.596;5.258;2023-02-10T08:06:51;41.97;;;23.75;;
64293;SDS011;50636;45.596;5.258;2023-02-10T08:09:18;37.75;;;22.20;;
64293;SDS011;50636;45.596;5.258;2023-02-10T08:11:45;35.72;;;21.52;;
64293;SDS011;50636;45.596;5.258;2023-02-10T08:14:12;44.72;;;24.45;;
64293;SDS011;50636;45.596;5.258;2023-02-10T08:16:39;45.67;;;26.35;;
64293;SDS011;50636;45.596;5.258;2023-02-10T08:19:06;37.50;;;24.50;;
64293;SDS011;50636;45.596;5.258;2023-02-10T08:21:33;42.15;;;26.95;;
64293;SDS011;50636;45.596;5.258;2023-02-10T08:24:00;45.45;;;24.45;;
64293;SDS011;50636;45.596;5.258;2023-02-10T08:26:28;39.95;;;25.15;;
64293;SDS011;50636;45.596;5.258;2023-02-10T08:28:55;53.85;;;25.95;;
64293;SDS011;50636;45.596;5.258;2023-02-10T08:31:26;46.35;;;27.23;;
64293;SDS011;50636;45.596;5.258;2023-02-10T08:33:54;47.67;;;24.95;;
64293;SDS011;50636;45.596;5.258;2023-02-10T08:36:22;40.95;;;27.10;;
64293;SDS011;50636;45.596;5.258;2023-02-10T08:38:50;40.83;;;27.45;;
64293;SDS011;50636;45.596;5.258;2023-02-10T08:41:17;49.88;;;28.92;;
64293;SDS011;50636;45.596;5.258;2023-02-10T08:43:45;45.50;;;28.63;;
64293;SDS011;50636;45.596;5.258;2023-02-10T08:46:12;57.50;;;29.13;;
64293;SDS011;50636;45.596;5.258;2023-02-10T08:48:39;50.45;;;29.67;;
64293;SDS011;50636;45.596;5.258;2023-02-10T08:51:07;49.25;;;27.95;;
64293;SDS011;50636;45.596;5.258;2023-02-10T08:53:36;51.03;;;29.75;;
64293;SDS011;50636;45.596;5.258;2023-02-10T08:56:04;46.85;;;29.13;;
64293;SDS011;50636;45.596;5.258;2023-02-10T08:58:34;52.58;;;32.47;;
64293;SDS011;50636;45.596;5.258;2023-02-10T09:01:01;42.17;;;31.10;;
64293;SDS011;50636;45.596;5.258;2023-02-10T09:03:39;46.38;;;31.10;;
64293;SDS011;50636;45.596;5.258;2023-02-10T09:06:12;40.78;;;28.58;;
64293;SDS011;50636;45.596;5.258;2023-02-10T09:08:54;40.40;;;30.77;;
64293;SDS011;50636;45.596;5.258;2023-02-10T09:11:22;44.00;;;31.40;;
64293;SDS011;50636;45.596;5.258;2023-02-10T09:13:50;44.38;;;31.95;;
64293;SDS011;50636;45.596;5.258;2023-02-10T09:16:17;41.67;;;31.77;;
64293;SDS011;50636;45.596;5.258;2023-02-10T09:18:44;49.17;;;31.13;;
64293;SDS011;50636;45.596;5.258;2023-02-10T09:21:12;41.42;;;29.80;;
64293;SDS011;50636;45.596;5.258;2023-02-10T09:23:39;48.72;;;31.00;;
64293;SDS011;50636;45.596;5.258;2023-02-10T09:26:06;48.63;;;30.15;;
64293;SDS011;50636;45.596;5.258;2023-02-10T09:28:34;39.85;;;28.33;;
64293;SDS011;50636;45.596;5.258;2023-02-10T09:31:04;34.78;;;27.33;;
64293;SDS011;50636;45.596;5.258;2023-02-10T09:33:33;40.47;;;28.58;;
64293;SDS011;50636;45.596;5.258;2023-02-10T09:36:18;34.40;;;28.10;;
64293;SDS011;50636;45.596;5.258;2023-02-10T09:38:58;40.53;;;28.65;;
64293;SDS011;50636;45.596;5.258;2023-02-10T09:44:29;43.80;;;29.15;;
64293;SDS011;50636;45.596;5.258;2023-02-10T09:47:33;45.17;;;28.08;;
64293;SDS011;50636;45.596;5.258;2023-02-10T09:53:28;31.73;;;26.48;;
64293;SDS011;50636;45.596;5.258;2023-02-10T09:56:02;34.35;;;25.15;;
64293;SDS011;50636;45.596;5.258;2023-02-10T09:58:43;42.63;;;28.90;;
64293;SDS011;50636;45.596;5.258;2023-02-10T10:04:07;43.17;;;27.20;;
64293;SDS011;50636;45.596;5.258;2023-02-10T10:13:40;45.35;;;32.58;;
64293;SDS011;50636;45.596;5.258;2023-02-10T10:19:17;31.88;;;21.50;;
64293;SDS011;50636;45.596;5.258;2023-02-10T10:21:40;37.03;;;23.73;;
64293;SDS011;50636;45.596;5.258;2023-02-10T10:24:39;32.10;;;23.83;;
64293;SDS011;50636;45.596;5.258;2023-02-10T10:30:19;46.90;;;25.50;;
64293;SDS011;50636;45.596;5.258;2023-02-10T10:33:49;44.38;;;26.52;;
64293;SDS011;50636;45.596;5.258;2023-02-10T10:36:39;34.38;;;24.13;;
64293;SDS011;50636;45.596;5.258;2023-02-10T10:39:43;44.28;;;27.30;;
64293;SDS011;50636;45.596;5.258;2023-02-10T10:45:55;27.48;;;24.13;;
64293;SDS011;50636;45.596;5.258;2023-02-10T10:48:44;50.50;;;26.60;;
64293;SDS011;50636;45.596;5.258;2023-02-10T10:51:29;46.00;;;25.60;;
64293;SDS011;50636;45.596;5.258;2023-02-10T10:54:12;32.85;;;25.70;;
64293;SDS011;50636;45.596;5.258;2023-02-10T10:56:54;41.05;;;26.45;;
64293;SDS011;50636;45.596;5.258;2023-02-10T11:02:29;32.10;;;25.35;;
64293;SDS011;50636;45.596;5.258;2023-02-10T11:05:08;36.97;;;29.67;;
64293;SDS011;50636;45.596;5.258;2023-02-10T11:08:03;35.10;;;27.92;;
64293;SDS011;50636;45.596;5.258;2023-02-10T11:10:48;30.48;;;26.38;;
64293;SDS011;50636;45.596;5.258;2023-02-10T11:13:38;38.22;;;27.10;;
64293;SDS011;50636;45.596;5.258;2023-02-10T11:16:08;30.67;;;27.52;;
64293;SDS011;50636;45.596;5.258;2023-02-10T11:18:49;37.00;;;28.80;;
64293;SDS011;50636;45.596;5.258;2023-02-10T11:21:21;37.40;;;28.85;;
64293;SDS011;50636;45.596;5.258;2023-02-10T11:24:14;41.55;;;32.95;;
64293;SDS011;50636;45.596;5.258;2023-02-10T11:27:02;81.70;;;32.60;;
64293;SDS011;50636;45.596;5.258;2023-02-10T11:36:07;34.60;;;29.23;;
64293;SDS011;50636;45.596;5.258;2023-02-10T11:38:59;39.90;;;31.23;;
64293;SDS011;50636;45.596;5.258;2023-02-10T11:41:32;37.25;;;31.33;;
64293;SDS011;50636;45.596;5.258;2023-02-10T11:47:04;35.35;;;31.75;;
64293;SDS011;50636;45.596;5.258;2023-02-10T11:49:42;34.92;;;30.23;;
64293;SDS011;50636;45.596;5.258;2023-02-10T11:52:16;36.58;;;30.95;;
64293;SDS011;50636;45.596;5.258;2023-02-10T11:54:45;36.28;;;30.98;;
64293;SDS011;50636;45.596;5.258;2023-02-10T12:00:51;40.03;;;31.55;;
64293;SDS011;50636;45.596;5.258;2023-02-10T12:04:10;38.92;;;31.67;;
64293;SDS011;50636;45.596;5.258;2023-02-10T12:10:26;45.10;;;34.58;;
64293;SDS011;50636;45.596;5.258;2023-02-10T12:13:24;38.92;;;31.48;;
64293;SDS011;50636;45.596;5.258;2023-02-10T12:19:12;37.88;;;30.75;;
64293;SDS011;50636;45.596;5.258;2023-02-10T12:31:28;36.90;;;30.25;;
64293;SDS011;50636;45.596;5.258;2023-02-10T12:57:23;36.30;;;24.92;;
64293;SDS011;50636;45.596;5.258;2023-02-10T13:00:24;32.13;;;25.55;;
64293;SDS011;50636;45.596;5.258;2023-02-10T13:12:25;34.47;;;25.00;;
64293;SDS011;50636;45.596;5.258;2023-02-10T13:15:04;29.60;;;24.50;;
64293;SDS011;50636;45.596;5.258;2023-02-10T13:17:51;41.05;;;23.95;;
64293;SDS011;50636;45.596;5.258;2023-02-10T13:23:31;29.50;;;24.15;;
64293;SDS011;50636;45.596;5.258;2023-02-10T13:26:17;33.05;;;24.17;;
64293;SDS011;50636;45.596;5.258;2023-02-10T13:35:23;37.50;;;25.10;;
64293;SDS011;50636;45.596;5.258;2023-02-10T13:38:06;31.55;;;23.52;;
64293;SDS011;50636;45.596;5.258;2023-02-10T13:44:26;35.00;;;22.83;;
64293;SDS011;50636;45.596;5.258;2023-02-10T13:50:18;30.02;;;23.90;;
64293;SDS011;50636;45.596;5.258;2023-02-10T13:53:25;29.05;;;21.95;;
64293;SDS011;50636;45.596;5.258;2023-02-10T13:56:33;29.42;;;22.92;;
64293;SDS011;50636;45.596;5.258;2023-02-10T14:08:15;34.13;;;23.70;;
64293;SDS011;50636;45.596;5.258;2023-02-10T14:11:00;28.80;;;22.33;;
64293;SDS011;50636;45.596;5.258;2023-02-10T14:14:02;33.95;;;22.77;;
64293;SDS011;50636;45.596;5.258;2023-02-10T14:20:27;30.75;;;22.75;;
64293;SDS011;50636;45.596;5.258;2023-02-10T14:23:18;37.10;;;23.38;;
64293;SDS011;50636;45.596;5.258;2023-02-10T14:26:20;31.13;;;24.13;;
64293;SDS011;50636;45.596;5.258;2023-02-10T14:28:53;31.83;;;22.77;;
64293;SDS011;50636;45.596;5.258;2023-02-10T14:31:28;32.80;;;23.85;;
64293;SDS011;50636;45.596;5.258;2023-02-10T14:34:00;30.30;;;23.55;;
64293;SDS011;50636;45.596;5.258;2023-02-10T14:36:28;27.42;;;22.95;;
64293;SDS011;50636;45.596;5.258;2023-02-10T14:38:56;35.95;;;24.88;;
64293;SDS011;50636;45.596;5.258;2023-02-10T14:41:26;34.88;;;24.05;;
64293;SDS011;50636;45.596;5.258;2023-02-10T14:43:54;30.90;;;22.98;;
64293;SDS011;50636;45.596;5.258;2023-02-10T14:46:29;29.65;;;23.02;;
64293;SDS011;50636;45.596;5.258;2023-02-10T14:49:02;39.25;;;24.00;;
64293;SDS011;50636;45.596;5.258;2023-02-10T14:51:43;30.30;;;22.92;;
64293;SDS011;50636;45.596;5.258;2023-02-10T14:56:48;35.90;;;21.85;;
64293;SDS011;50636;45.596;5.258;2023-02-10T14:59:23;32.85;;;23.77;;
64293;SDS011;50636;45.596;5.258;2023-02-10T15:01:52;30.85;;;23.77;;
64293;SDS011;50636;45.596;5.258;2023-02-10T15:04:20;33.58;;;22.95;;
64293;SDS011;50636;45.596;5.258;2023-02-10T15:06:54;36.65;;;25.50;;
64293;SDS011;50636;45.596;5.258;2023-02-10T15:09:28;32.25;;;23.63;;
64293;SDS011;50636;45.596;5.258;2023-02-10T15:12:05;40.38;;;25.13;;
64293;SDS011;50636;45.596;5.258;2023-02-10T15:30:06;44.28;;;36.28;;
64293;SDS011;50636;45.596;5.258;2023-02-10T15:32:54;40.30;;;25.33;;
64293;SDS011;50636;45.596;5.258;2023-02-10T15:35:26;83.15;;;71.15;;
64293;SDS011;50636;45.596;5.258;2023-02-10T15:37:57;32.13;;;24.45;;
64293;SDS011;50636;45.596;5.258;2023-02-10T15:43:26;29.20;;;21.70;;
64293;SDS011;50636;45.596;5.258;2023-02-10T15:49:12;39.22;;;23.83;;
64293;SDS011;50636;45.596;5.258;2023-02-10T15:51:54;31.63;;;22.00;;
64293;SDS011;50636;45.596;5.258;2023-02-10T16:00:12;32.30;;;22.45;;
64293;SDS011;50636;45.596;5.258;2023-02-10T16:03:00;30.75;;;23.40;;
64293;SDS011;50636;45.596;5.258;2023-02-10T16:05:28;30.88;;;22.77;;
64293;SDS011;50636;45.596;5.258;2023-02-10T16:08:00;31.67;;;24.42;;
64293;SDS011;50636;45.596;5.258;2023-02-10T16:10:47;36.97;;;24.30;;
64293;SDS011;50636;45.596;5.258;2023-02-10T16:13:14;39.58;;;24.80;;
64293;SDS011;50636;45.596;5.258;2023-02-10T16:15:43;36.63;;;25.65;;
64293;SDS011;50636;45.596;5.258;2023-02-10T16:18:12;37.88;;;23.00;;
64293;SDS011;50636;45.596;5.258;2023-02-10T16:20:41;32.10;;;23.15;;
64293;SDS011;50636;45.596;5.258;2023-02-10T16:23:15;34.67;;;23.45;;
64293;SDS011;50636;45.596;5.258;2023-02-10T16:28:16;36.45;;;25.25;;
64293;SDS011;50636;45.596;5.258;2023-02-10T16:30:44;37.13;;;23.33;;
64293;SDS011;50636;45.596;5.258;2023-02-10T16:33:13;30.17;;;24.33;;
64293;SDS011;50636;45.596;5.258;2023-02-10T16:35:41;38.83;;;26.45;;
64293;SDS011;50636;45.596;5.258;2023-02-10T16:38:08;32.20;;;25.58;;
64293;SDS011;50636;45.596;5.258;2023-02-10T16:40:37;30.55;;;23.83;;
64293;SDS011;50636;45.596;5.258;2023-02-10T16:43:12;33.45;;;25.63;;
64293;SDS011;50636;45.596;5.258;2023-02-10T16:45:38;33.03;;;24.58;;
64293;SDS011;50636;45.596;5.258;2023-02-10T16:48:05;41.25;;;25.42;;
64293;SDS011;50636;45.596;5.258;2023-02-10T16:53:09;32.75;;;25.48;;
64293;SDS011;50636;45.596;5.258;2023-02-10T16:55:37;31.60;;;24.85;;
64293;SDS011;50636;45.596;5.258;2023-02-10T16:58:07;37.00;;;26.48;;
64293;SDS011;50636;45.596;5.258;2023-02-10T17:00:41;41.50;;;26.85;;
64293;SDS011;50636;45.596;5.258;2023-02-10T17:03:11;38.15;;;27.30;;
64293;SDS011;50636;45.596;5.258;2023-02-10T17:05:38;37.95;;;26.27;;
64293;SDS011;50636;45.596;5.258;2023-02-10T17:08:06;42.25;;;26.08;;
64293;SDS011;50636;45.596;5.258;2023-02-10T17:10:34;34.40;;;25.35;;
64293;SDS011;50636;45.596;5.258;2023-02-10T17:13:10;36.08;;;25.90;;
64293;SDS011;50636;45.596;5.258;2023-02-10T17:15:41;36.95;;;26.10;;
64293;SDS011;50636;45.596;5.258;2023-02-10T17:18:07;30.70;;;24.80;;
64293;SDS011;50636;45.596;5.258;2023-02-10T17:20:48;36.78;;;26.95;;
64293;SDS011;50636;45.596;5.258;2023-02-10T17:23:18;37.08;;;28.35;;
64293;SDS011;50636;45.596;5.258;2023-02-10T17:25:54;41.88;;;26.33;;
64293;SDS011;50636;45.596;5.258;2023-02-10T17:28:30;34.17;;;26.30;;
64293;SDS011;50636;45.596;5.258;2023-02-10T17:31:16;39.28;;;27.10;;
64293;SDS011;50636;45.596;5.258;2023-02-10T17:34:08;34.58;;;27.20;;
64293;SDS011;50636;45.596;5.258;2023-02-10T17:36:49;36.78;;;27.58;;
64293;SDS011;50636;45.596;5.258;2023-02-10T17:39:18;37.70;;;29.23;;
64293;SDS011;50636;45.596;5.258;2023-02-10T17:41:54;35.90;;;28.83;;
64293;SDS011;50636;45.596;5.258;2023-02-10T17:44:21;36.13;;;28.60;;
64293;SDS011;50636;45.596;5.258;2023-02-10T17:46:49;40.30;;;28.02;;
64293;SDS011;50636;45.596;5.258;2023-02-10T17:49:27;38.42;;;28.73;;
64293;SDS011;50636;45.596;5.258;2023-02-10T17:51:57;35.33;;;28.23;;
64293;SDS011;50636;45.596;5.258;2023-02-10T17:54:25;39.25;;;28.98;;
64293;SDS011;50636;45.596;5.258;2023-02-10T17:56:53;40.40;;;29.40;;
64293;SDS011;50636;45.596;5.258;2023-02-10T17:59:21;42.80;;;28.58;;
64293;SDS011;50636;45.596;5.258;2023-02-10T18:01:48;43.33;;;29.20;;
64293;SDS011;50636;45.596;5.258;2023-02-10T18:04:21;38.85;;;29.20;;
64293;SDS011;50636;45.596;5.258;2023-02-10T18:06:48;41.95;;;30.13;;
64293;SDS011;50636;45.596;5.258;2023-02-10T18:09:16;37.85;;;29.95;;
64293;SDS011;50636;45.596;5.258;2023-02-10T18:11:43;38.67;;;29.10;;
64293;SDS011;50636;45.596;5.258;2023-02-10T18:14:10;40.83;;;29.90;;
64293;SDS011;50636;45.596;5.258;2023-02-10T18:16:37;37.28;;;28.23;;
64293;SDS011;50636;45.596;5.258;2023-02-10T18:19:04;40.13;;;30.58;;
64293;SDS011;50636;45.596;5.258;2023-02-10T18:21:31;42.88;;;31.50;;
64293;SDS011;50636;45.596;5.258;2023-02-10T18:23:58;50.83;;;31.08;;
64293;SDS011;50636;45.596;5.258;2023-02-10T18:26:27;54.75;;;32.22;;
64293;SDS011;50636;45.596;5.258;2023-02-10T18:28:54;41.45;;;30.90;;
64293;SDS011;50636;45.596;5.258;2023-02-10T18:31:21;39.25;;;30.10;;
64293;SDS011;50636;45.596;5.258;2023-02-10T18:33:48;47.47;;;31.23;;
64293;SDS011;50636;45.596;5.258;2023-02-10T18:36:15;45.22;;;32.63;;
64293;SDS011;50636;45.596;5.258;2023-02-10T18:41:49;46.67;;;32.75;;